Time;durP1;ratioP1;P1;durP2;ratioP2;P2;SDS_P1;SDS_P2;PMS_P1;PMS_P2;Temp;Humidity;BMP_temperature;BMP_pressure;BME280_temperature;BME280_humidity;BME280_pressure;Samples;Min_cycle;Max_cycle;Signal;HPM_P1;HPM_P2
2022/09/11 00:00:46;;;;;;;11.32;5.07;;;14.30;99.90;;;;;;5034162;28;20296;-51
2022/09/11 00:03:12;;;;;;;16.95;5.13;;;13.80;99.90;;;;;;5033902;28;20663;-51
2022/09/11 00:05:42;;;;;;;12.85;5.50;;;14.30;99.90;;;;;;5014317;28;20174;-52
2022/09/11 00:08:13;;;;;;;12.80;5.85;;;14.20;99.90;;;;;;5014246;28;20258;-52
2022/09/11 00:10:41;;;;;;;11.43;5.65;;;14.00;99.90;;;;;;5014187;28;20174;-52
2022/09/11 00:13:09;;;;;;;8.75;5.63;;;14.50;99.90;;;;;;5027467;28;20178;-51
2022/09/11 00:15:43;;;;;;;12.98;5.28;;;14.10;99.90;;;;;;5033803;28;20529;-51
2022/09/11 00:18:12;;;;;;;13.43;5.47;;;14.30;99.90;;;;;;5033600;28;20252;-51
2022/09/11 00:20:38;;;;;;;9.02;5.55;;;14.30;99.90;;;;;;5033811;28;20300;-51
2022/09/11 00:23:04;;;;;;;6.78;5.03;;;14.20;99.90;;;;;;5033719;28;20170;-51
2022/09/11 00:25:35;;;;;;;16.15;5.47;;;14.40;99.90;;;;;;5033485;28;20182;-51
2022/09/11 00:28:01;;;;;;;11.30;5.78;;;14.40;99.90;;;;;;5033316;28;20178;-51
2022/09/11 00:30:27;;;;;;;14.02;6.30;;;14.20;99.90;;;;;;5033563;28;20170;-52
2022/09/11 00:32:53;;;;;;;21.20;6.45;;;;;;;;;;5033173;28;20614;-53
2022/09/11 00:35:19;;;;;;;11.27;5.90;;;14.50;99.90;;;;;;5033218;28;20182;-51
2022/09/11 00:37:45;;;;;;;11.45;6.47;;;14.30;99.90;;;;;;5033392;28;20177;-51
2022/09/11 00:40:10;;;;;;;10.57;6.15;;;14.20;99.90;;;;;;5033188;28;20230;-51
2022/09/11 00:42:36;;;;;;;14.05;7.20;;;14.30;99.90;;;;;;5032168;28;20170;-51
2022/09/11 00:45:05;;;;;;;15.05;6.35;;;14.10;99.90;;;;;;5033112;28;20248;-52
2022/09/11 00:47:32;;;;;;;11.40;6.20;;;14.00;99.90;;;;;;5033202;28;20208;-52
2022/09/11 00:50:09;;;;;;;13.90;6.20;;;14.50;99.90;;;;;;5033119;28;20201;-52
2022/09/11 00:52:40;;;;;;;16.35;6.20;;;14.40;99.90;;;;;;5033124;28;20244;-52
2022/09/11 00:55:09;;;;;;;10.40;5.82;;;14.20;99.90;;;;;;5032974;28;20186;-52
2022/09/11 00:57:41;;;;;;;11.15;5.90;;;14.10;99.90;;;;;;5033214;28;20185;-52
2022/09/11 01:00:08;;;;;;;10.90;6.82;;;14.10;99.90;;;;;;5033055;28;20296;-52
2022/09/11 01:02:37;;;;;;;10.60;6.15;;;14.10;99.90;;;;;;5033090;28;20716;-52
2022/09/11 01:05:03;;;;;;;9.52;6.22;;;14.00;99.90;;;;;;5032671;28;20724;-56
2022/09/11 01:07:30;;;;;;;15.30;6.40;;;14.00;99.90;;;;;;5033021;28;20235;-53
2022/09/11 01:09:57;;;;;;;11.90;6.70;;;14.00;99.90;;;;;;5033022;28;20182;-52
2022/09/11 01:12:57;;;;;;;13.82;6.40;;;14.10;99.90;;;;;;5032787;28;20181;-62
2022/09/11 01:15:28;;;;;;;11.50;6.20;;;14.20;99.90;;;;;;5005263;28;20190;-53
2022/09/11 01:18:21;;;;;;;17.95;6.32;;;13.80;99.90;;;;;;5014232;28;20683;-52
2022/09/11 01:20:58;;;;;;;15.55;6.10;;;14.00;99.90;;;;;;5031785;28;20702;-53
2022/09/11 01:23:27;;;;;;;10.52;5.53;;;13.80;99.90;;;;;;5032338;28;20213;-53
2022/09/11 01:26:14;;;;;;;9.32;5.28;;;13.80;99.90;;;;;;5032577;28;20224;-52
2022/09/11 01:28:59;;;;;;;11.00;5.38;;;13.90;99.90;;;;;;5032528;28;20244;-53
2022/09/11 01:31:30;;;;;;;11.98;5.70;;;13.70;99.90;;;;;;5032406;28;20208;-53
2022/09/11 01:34:28;;;;;;;11.80;5.28;;;13.30;99.90;;;;;;5032125;28;20180;-53
2022/09/11 01:37:03;;;;;;;15.63;5.80;;;13.70;99.90;;;;;;5032150;28;20657;-53
2022/09/11 01:39:39;;;;;;;10.93;6.38;;;13.70;99.90;;;;;;5032264;28;20296;-53
2022/09/11 01:42:12;;;;;;;11.60;5.60;;;13.70;99.90;;;;;;5032348;28;20652;-53
2022/09/11 01:44:56;;;;;;;14.13;6.25;;;13.70;99.90;;;;;;5031284;28;20172;-53
2022/09/11 01:47:22;;;;;;;11.68;6.35;;;13.90;99.90;;;;;;5032277;28;20232;-53
2022/09/11 01:50:20;;;;;;;12.25;7.47;;;13.70;99.90;;;;;;5032304;28;20272;-58
2022/09/11 01:53:00;;;;;;;13.40;7.07;;;13.60;99.90;;;;;;5018875;28;20196;-51
2022/09/11 01:55:35;;;;;;;16.40;7.32;;;13.70;99.90;;;;;;5032039;28;20184;-51
2022/09/11 01:58:05;;;;;;;16.13;7.70;;;13.50;99.90;;;;;;5031616;28;20185;-52
2022/09/11 02:00:34;;;;;;;11.32;6.60;;;13.80;99.90;;;;;;5031932;28;20316;-52
2022/09/11 02:03:16;;;;;;;18.00;7.25;;;14.30;99.90;;;;;;5031674;28;20186;-52
2022/09/11 02:05:59;;;;;;;9.77;6.60;;;13.60;99.90;;;;;;5031855;28;20170;-52
2022/09/11 02:08:57;;;;;;;10.48;6.47;;;13.60;99.90;;;;;;5031491;28;20170;-52
2022/09/11 02:11:23;;;;;;;12.57;6.30;;;13.60;99.90;;;;;;5031227;28;20210;-52
2022/09/11 02:14:13;;;;;;;16.85;7.10;;;13.60;99.90;;;;;;5031300;28;20181;-52
2022/09/11 02:16:50;;;;;;;10.30;7.07;;;13.40;99.90;;;;;;5031496;28;20273;-51
2022/09/11 02:19:18;;;;;;;15.13;7.13;;;13.50;99.90;;;;;;5031563;28;20223;-51
2022/09/11 02:21:49;;;;;;;13.18;7.57;;;13.10;99.90;;;;;;5031509;28;20221;-51
2022/09/11 02:24:16;;;;;;;12.80;7.80;;;13.40;99.90;;;;;;5031175;28;20671;-51
2022/09/11 02:26:47;;;;;;;12.20;6.85;;;13.40;99.90;;;;;;5031600;28;20170;-52
2022/09/11 02:29:14;;;;;;;10.87;7.10;;;13.50;99.90;;;;;;5031410;28;20253;-52
2022/09/11 02:31:41;;;;;;;11.30;7.78;;;13.50;99.90;;;;;;5031235;28;20184;-52
2022/09/11 02:34:08;;;;;;;17.80;7.50;;;13.40;99.90;;;;;;5031075;28;20205;-52
2022/09/11 02:36:53;;;;;;;13.80;8.32;;;13.40;99.90;;;;;;5031303;28;20201;-52
2022/09/11 02:39:46;;;;;;;17.85;7.57;;;13.30;99.90;;;;;;5031289;28;20225;-52
2022/09/11 02:42:30;;;;;;;14.50;7.57;;;13.30;99.90;;;;;;5031232;28;20178;-52
2022/09/11 02:44:59;;;;;;;13.45;8.00;;;13.20;99.90;;;;;;5031131;28;20221;-52
2022/09/11 02:47:51;;;;;;;17.30;7.78;;;13.30;99.90;;;;;;5031080;28;20170;-53
2022/09/11 02:50:23;;;;;;;10.60;7.87;;;13.30;99.90;;;;;;5022897;28;20652;-52
2022/09/11 02:52:57;;;;;;;13.18;7.55;;;13.30;99.90;;;;;;5030744;28;20186;-52
2022/09/11 02:55:38;;;;;;;12.90;7.53;;;13.30;99.90;;;;;;5030255;28;20224;-52
2022/09/11 02:58:07;;;;;;;16.92;7.80;;;13.30;99.90;;;;;;5031049;28;20203;-52
2022/09/11 03:00:34;;;;;;;11.90;7.40;;;;;;;;;;5030218;28;20237;-51
2022/09/11 03:02:59;;;;;;;11.75;7.80;;;13.30;99.90;;;;;;5030620;28;20201;-51
2022/09/11 03:05:27;;;;;;;16.23;8.38;;;13.30;99.90;;;;;;5030844;28;20686;-51
2022/09/11 03:07:53;;;;;;;13.07;7.65;;;13.40;99.90;;;;;;5030444;28;20702;-52
2022/09/11 03:10:19;;;;;;;10.23;7.32;;;13.00;99.90;;;;;;5030850;28;20166;-52
2022/09/11 03:12:45;;;;;;;9.68;7.38;;;;;;;;;;5030477;28;21797;-52
2022/09/11 03:15:11;;;;;;;12.73;8.30;;;12.90;99.90;;;;;;5030713;28;20316;-52
2022/09/11 03:17:37;;;;;;;12.27;8.18;;;12.90;99.90;;;;;;5019042;28;20269;-52
2022/09/11 03:20:03;;;;;;;19.73;8.87;;;13.60;99.90;;;;;;5011040;28;20214;-52
2022/09/11 03:22:29;;;;;;;17.07;8.87;;;13.10;99.90;;;;;;5011140;28;20179;-52
2022/09/11 03:24:55;;;;;;;20.03;8.30;;;13.00;99.90;;;;;;5029372;28;20258;-52
2022/09/11 03:27:22;;;;;;;15.27;8.53;;;13.00;99.90;;;;;;5029706;28;20182;-52
2022/09/11 03:29:48;;;;;;;13.90;8.00;;;;;;;;;;5029360;28;20232;-52
2022/09/11 03:32:15;;;;;;;19.27;8.50;;;13.10;99.90;;;;;;5030587;28;20166;-52
2022/09/11 03:34:41;;;;;;;15.13;8.17;;;12.90;99.90;;;;;;5030725;28;20178;-52
2022/09/11 03:37:06;;;;;;;15.60;8.45;;;12.90;99.90;;;;;;5030433;28;20216;-52
2022/09/11 03:39:32;;;;;;;13.33;8.17;;;;;;;;;;5030411;28;20237;-52
2022/09/11 03:41:58;;;;;;;12.53;7.60;;;;;;;;;;5030388;28;20300;-52
2022/09/11 03:44:24;;;;;;;19.33;8.17;;;13.10;99.90;;;;;;5030340;28;20604;-52
2022/09/11 03:46:51;;;;;;;11.20;7.35;;;12.60;99.90;;;;;;5030511;28;20188;-52
2022/09/11 03:49:17;;;;;;;16.60;8.00;;;12.90;99.90;;;;;;5030423;28;20182;-52
2022/09/11 03:51:42;;;;;;;15.40;8.13;;;12.80;99.90;;;;;;5030020;28;20665;-52
2022/09/11 03:54:09;;;;;;;15.20;7.47;;;;;;;;;;5030119;28;20182;-52
2022/09/11 03:56:35;;;;;;;14.80;7.67;;;12.70;99.90;;;;;;5030582;28;20170;-52
2022/09/11 03:59:01;;;;;;;15.20;7.77;;;;;;;;;;5030187;28;20665;-52
2022/09/11 04:01:28;;;;;;;12.13;7.73;;;13.10;99.90;;;;;;5030094;28;20239;-53
2022/09/11 04:03:53;;;;;;;17.20;7.85;;;12.80;99.90;;;;;;5030103;28;20227;-53
2022/09/11 04:06:19;;;;;;;14.00;7.63;;;13.10;99.90;;;;;;5030036;28;20653;-53
2022/09/11 04:08:45;;;;;;;14.50;7.93;;;12.80;99.90;;;;;;5033526;28;20178;-52
2022/09/11 04:11:11;;;;;;;15.77;8.40;;;12.80;99.90;;;;;;5033969;28;20178;-51
2022/09/11 04:13:39;;;;;;;12.00;8.23;;;13.40;99.90;;;;;;5032566;28;20671;-51
2022/09/11 04:16:08;;;;;;;13.57;8.03;;;12.80;99.90;;;;;;5033956;28;20186;-52
2022/09/11 04:18:36;;;;;;;13.20;7.80;;;12.90;99.90;;;;;;5033835;28;20166;-51
2022/09/11 04:21:06;;;;;;;17.50;7.45;;;12.70;99.90;;;;;;5033463;28;20205;-51
2022/09/11 04:23:32;;;;;;;12.03;7.37;;;12.70;99.90;;;;;;5033420;28;20259;-51
2022/09/11 04:25:59;;;;;;;13.03;8.20;;;;;;;;;;5033678;28;20257;-51
2022/09/11 04:28:27;;;;;;;14.37;8.33;;;12.80;99.90;;;;;;5033692;28;20174;-51
2022/09/11 04:30:53;;;;;;;15.53;8.07;;;12.90;99.90;;;;;;5033582;28;20637;-51
2022/09/11 04:33:18;;;;;;;13.23;7.50;;;12.90;99.90;;;;;;5032639;28;20248;-52
2022/09/11 04:35:44;;;;;;;13.97;7.20;;;12.70;99.90;;;;;;5033597;28;20175;-51
2022/09/11 04:38:09;;;;;;;17.70;7.80;;;12.70;99.90;;;;;;5033433;28;20200;-52
2022/09/11 04:40:35;;;;;;;16.97;8.50;;;;;;;;;;5033257;28;20324;-52
2022/09/11 04:43:02;;;;;;;15.10;7.40;;;12.90;99.90;;;;;;5032976;28;20257;-52
2022/09/11 04:45:32;;;;;;;14.47;8.33;;;12.70;99.90;;;;;;5032920;28;20602;-52
2022/09/11 04:47:58;;;;;;;13.53;7.77;;;12.40;99.90;;;;;;5033133;28;20170;-52
2022/09/11 04:50:24;;;;;;;14.43;7.33;;;12.80;99.90;;;;;;5033151;28;20263;-52
2022/09/11 04:52:50;;;;;;;10.43;7.33;;;;;;;;;;5032836;28;20637;-52
2022/09/11 04:55:16;;;;;;;15.50;8.23;;;12.50;99.90;;;;;;5032801;28;20658;-52
2022/09/11 04:57:42;;;;;;;15.20;7.90;;;;;;;;;;5033114;28;20173;-52
2022/09/11 05:00:09;;;;;;;11.77;7.67;;;12.60;99.90;;;;;;5033065;28;20244;-52
2022/09/11 05:02:35;;;;;;;12.13;7.67;;;;;;;;;;5032936;28;20621;-52
2022/09/11 05:05:01;;;;;;;17.80;8.73;;;12.40;99.90;;;;;;5032643;28;20527;-52
2022/09/11 05:07:28;;;;;;;14.03;8.50;;;12.50;99.90;;;;;;5033071;28;20189;-52
2022/09/11 05:09:53;;;;;;;18.20;8.70;;;12.60;99.90;;;;;;5032901;28;20701;-52
2022/09/11 05:12:22;;;;;;;10.93;8.50;;;12.70;99.90;;;;;;5032758;28;20265;-52
2022/09/11 05:14:48;;;;;;;12.70;8.17;;;12.30;99.90;;;;;;5032433;28;20182;-52
2022/09/11 05:17:13;;;;;;;16.90;9.70;;;12.70;99.90;;;;;;5030458;28;20192;-52
2022/09/11 05:19:39;;;;;;;15.83;9.83;;;12.70;99.90;;;;;;5012839;28;20198;-51
2022/09/11 05:22:06;;;;;;;13.23;8.43;;;12.90;99.90;;;;;;5031931;28;20178;-52
2022/09/11 05:24:31;;;;;;;13.60;8.47;;;12.60;99.90;;;;;;5032096;28;20182;-51
2022/09/11 05:27:00;;;;;;;12.87;9.37;;;12.60;99.90;;;;;;5032519;28;20178;-52
2022/09/11 05:29:29;;;;;;;16.60;9.90;;;12.50;99.90;;;;;;5032539;28;20178;-51
2022/09/11 05:31:57;;;;;;;18.47;9.43;;;12.50;99.90;;;;;;5032190;28;20196;-52
2022/09/11 05:34:24;;;;;;;15.60;9.30;;;12.70;99.90;;;;;;5032345;28;20186;-52
2022/09/11 05:36:50;;;;;;;17.10;9.73;;;12.80;99.90;;;;;;5032399;28;20223;-51
2022/09/11 05:39:16;;;;;;;19.57;9.90;;;12.80;99.90;;;;;;5032048;28;20209;-51
2022/09/11 05:41:42;;;;;;;16.63;9.40;;;12.70;99.90;;;;;;5031982;28;20218;-51
2022/09/11 05:44:07;;;;;;;14.90;8.33;;;12.80;99.90;;;;;;5032146;28;20174;-52
2022/09/11 05:46:33;;;;;;;17.23;8.70;;;12.70;99.90;;;;;;5032189;28;20255;-51
2022/09/11 05:48:59;;;;;;;13.97;8.57;;;;;;;;;;5031681;28;20505;-52
2022/09/11 05:51:25;;;;;;;15.80;8.30;;;12.60;99.90;;;;;;5032332;28;20201;-53
2022/09/11 05:53:54;;;;;;;12.40;8.23;;;12.90;99.90;;;;;;5032140;28;20648;-52
2022/09/11 05:56:22;;;;;;;11.53;7.97;;;12.60;99.90;;;;;;5032130;28;20176;-52
2022/09/11 05:58:52;;;;;;;13.60;8.53;;;12.60;99.90;;;;;;5031528;28;20281;-53
2022/09/11 06:01:20;;;;;;;12.20;8.50;;;12.60;99.90;;;;;;5032005;28;20186;-52
2022/09/11 06:03:47;;;;;;;10.83;7.87;;;12.70;99.90;;;;;;5031979;28;20178;-52
2022/09/11 06:06:13;;;;;;;11.10;8.33;;;;;;;;;;5031894;28;20185;-52
2022/09/11 06:08:43;;;;;;;13.90;8.27;;;13.00;99.90;;;;;;5031496;28;20917;-52
2022/09/11 06:11:10;;;;;;;13.60;8.70;;;12.90;99.90;;;;;;5031428;28;20186;-52
2022/09/11 06:13:37;;;;;;;18.17;9.17;;;12.90;99.90;;;;;;5031649;28;20165;-52
2022/09/11 06:16:04;;;;;;;13.05;8.48;;;;;;;;;;5031620;28;20640;-52
2022/09/11 06:18:31;;;;;;;12.00;8.63;;;12.90;99.90;;;;;;5031005;28;20170;-52
2022/09/11 06:20:57;;;;;;;14.02;8.18;;;;;;;;;;5031512;28;20206;-52
2022/09/11 06:23:22;;;;;;;13.50;8.50;;;13.00;99.90;;;;;;5031408;28;20181;-52
2022/09/11 06:25:48;;;;;;;19.33;9.80;;;13.20;99.90;;;;;;5031613;28;20178;-52
2022/09/11 06:28:14;;;;;;;13.73;8.87;;;13.10;99.90;;;;;;5031118;28;20184;-52
2022/09/11 06:30:40;;;;;;;16.10;8.17;;;13.00;99.90;;;;;;5031079;28;20317;-52
2022/09/11 06:33:05;;;;;;;15.32;8.80;;;13.50;99.90;;;;;;5030896;28;20649;-52
2022/09/11 06:35:32;;;;;;;11.53;8.33;;;;;;;;;;5031153;28;20196;-51
2022/09/11 06:37:58;;;;;;;12.38;8.63;;;13.30;99.90;;;;;;5030756;28;20308;-52
2022/09/11 06:40:24;;;;;;;11.93;9.20;;;13.40;99.90;;;;;;5030304;28;20265;-52
2022/09/11 06:42:50;;;;;;;15.20;8.68;;;13.40;99.90;;;;;;5031179;28;20170;-54
2022/09/11 06:45:17;;;;;;;16.30;9.73;;;;;;;;;;5030062;28;20192;-52
2022/09/11 06:47:43;;;;;;;13.15;8.30;;;13.60;99.90;;;;;;5031035;28;20170;-52
2022/09/11 06:50:10;;;;;;;10.93;7.80;;;13.80;99.90;;;;;;5031038;28;20210;-52
2022/09/11 06:52:36;;;;;;;12.27;8.60;;;13.80;99.90;;;;;;5011325;28;20273;-52
2022/09/11 06:55:03;;;;;;;15.00;8.13;;;13.90;99.90;;;;;;5011168;28;20253;-52
2022/09/11 06:57:28;;;;;;;15.73;10.40;;;14.10;99.90;;;;;;5011456;28;20175;-52
2022/09/11 06:59:56;;;;;;;19.20;9.73;;;14.20;99.90;;;;;;5011047;28;20733;-52
2022/09/11 07:02:22;;;;;;;15.88;10.32;;;;;;;;;;5011295;28;20170;-52
2022/09/11 07:04:48;;;;;;;13.48;9.85;;;14.50;99.90;;;;;;5030849;28;20265;-52
2022/09/11 07:07:14;;;;;;;16.63;10.30;;;;;;;;;;5030496;28;20268;-55
2022/09/11 07:09:40;;;;;;;22.60;10.27;;;14.60;99.90;;;;;;5030482;28;20209;-54
2022/09/11 07:12:06;;;;;;;12.73;10.05;;;14.60;99.90;;;;;;5028875;28;20208;-54
2022/09/11 07:14:31;;;;;;;14.05;9.98;;;14.70;99.90;;;;;;5040228;28;20187;-50
2022/09/11 07:16:57;;;;;;;15.40;10.38;;;15.10;99.90;;;;;;5030996;28;20641;-50
2022/09/11 07:19:26;;;;;;;11.32;8.88;;;;;;;;;;5026366;28;20615;-50
2022/09/11 07:21:52;;;;;;;12.40;9.70;;;;;;;;;;5010933;28;20173;-50
2022/09/11 07:24:18;;;;;;;14.25;11.18;;;15.40;99.90;;;;;;5010637;28;20175;-50
2022/09/11 07:26:44;;;;;;;17.83;10.65;;;;;;;;;;5018878;28;20185;-50
2022/09/11 07:29:11;;;;;;;16.50;10.25;;;15.50;99.90;;;;;;5029596;28;20819;-50
2022/09/11 07:31:38;;;;;;;15.75;11.10;;;15.50;99.90;;;;;;5030506;28;20201;-50
2022/09/11 07:34:05;;;;;;;15.77;10.68;;;;;;;;;;5030658;28;20994;-50
2022/09/11 07:36:33;;;;;;;17.05;10.57;;;15.70;99.90;;;;;;5029537;28;20174;-50
2022/09/11 07:38:58;;;;;;;15.68;10.52;;;15.70;99.90;;;;;;5033197;28;20644;-49
2022/09/11 07:41:25;;;;;;;19.02;10.35;;;15.60;99.90;;;;;;5030478;28;20233;-49
2022/09/11 07:43:56;;;;;;;18.25;11.68;;;15.90;99.90;;;;;;5034001;28;20170;-50
2022/09/11 07:46:23;;;;;;;17.73;11.27;;;15.90;99.90;;;;;;5033861;28;20264;-53
2022/09/11 07:48:49;;;;;;;18.20;11.52;;;16.00;99.90;;;;;;5034265;28;20692;-54
2022/09/11 07:51:17;;;;;;;14.55;10.88;;;15.90;99.90;;;;;;5033466;28;20718;-53
2022/09/11 07:53:45;;;;;;;16.95;10.98;;;16.10;99.90;;;;;;5034147;28;20165;-53
2022/09/11 07:56:17;;;;;;;18.10;11.15;;;16.20;99.90;;;;;;5035129;28;20174;-53
2022/09/11 07:58:43;;;;;;;16.38;11.18;;;16.40;99.90;;;;;;5035322;28;20182;-53
2022/09/11 08:01:15;;;;;;;15.90;10.35;;;16.40;99.90;;;;;;5033050;28;20206;-53
2022/09/11 08:03:44;;;;;;;17.42;11.45;;;16.20;99.90;;;;;;5032755;28;20609;-52
2022/09/11 08:06:15;;;;;;;19.15;11.05;;;17.10;99.90;;;;;;5034140;28;20240;-53
2022/09/11 08:08:42;;;;;;;14.60;10.55;;;16.90;99.90;;;;;;5035726;28;20166;-53
2022/09/11 08:11:11;;;;;;;18.80;11.55;;;17.30;99.90;;;;;;5053899;28;20177;-53
2022/09/11 08:13:37;;;;;;;17.83;10.82;;;17.30;99.90;;;;;;5053954;28;20263;-53
2022/09/11 08:16:03;;;;;;;16.05;10.35;;;17.60;99.90;;;;;;5053917;28;20173;-53
2022/09/11 08:18:29;;;;;;;14.43;10.80;;;17.70;99.90;;;;;;5053681;28;20176;-53
2022/09/11 08:21:09;;;;;;;17.77;10.90;;;19.10;99.90;;;;;;5035442;28;20228;-52
2022/09/11 08:23:35;;;;;;;17.10;10.73;;;18.30;99.90;;;;;;5033486;28;20588;-51
2022/09/11 08:26:08;;;;;;;16.75;11.00;;;18.50;99.90;;;;;;5027462;28;20175;-51
2022/09/11 08:28:36;;;;;;;18.38;10.85;;;18.20;99.90;;;;;;5029497;28;20182;-51
2022/09/11 08:31:02;;;;;;;18.23;11.05;;;17.70;99.90;;;;;;5032472;28;20182;-53
2022/09/11 08:33:29;;;;;;;14.30;10.02;;;18.40;99.90;;;;;;5022614;28;20228;-50
2022/09/11 08:35:57;;;;;;;18.35;10.77;;;18.10;99.90;;;;;;5023505;28;20179;-51
2022/09/11 08:38:23;;;;;;;14.68;10.05;;;20.40;99.90;;;;;;5024702;28;20185;-60
2022/09/11 08:40:50;;;;;;;14.50;9.75;;;20.60;99.90;;;;;;5032639;28;20225;-52
2022/09/11 08:43:26;;;;;;;12.57;9.15;;;21.40;99.90;;;;;;5032802;28;20264;-52
2022/09/11 08:45:57;;;;;;;12.23;8.48;;;22.70;99.90;;;;;;5033166;28;20208;-52
2022/09/11 08:48:31;;;;;;;11.73;7.97;;;23.00;99.90;;;;;;5033497;28;20182;-53
2022/09/11 08:50:57;;;;;;;12.32;8.30;;;23.60;99.90;;;;;;5028349;28;20178;-52
2022/09/11 08:53:31;;;;;;;12.57;7.70;;;24.60;99.90;;;;;;5020978;28;20668;-52
2022/09/11 08:56:09;;;;;;;12.50;7.00;;;24.30;99.90;;;;;;5030736;28;20186;-53
2022/09/11 08:59:08;;;;;;;8.73;6.97;;;24.10;99.90;;;;;;5021631;28;20186;-53
2022/09/11 09:01:46;;;;;;;11.20;6.97;;;25.20;99.90;;;;;;5031313;28;20198;-53
2022/09/11 09:04:29;;;;;;;11.02;6.78;;;23.60;99.90;;;;;;5032192;28;20186;-53
2022/09/11 09:07:16;;;;;;;8.88;6.38;;;23.60;99.90;;;;;;5032349;28;20185;-53
2022/09/11 09:09:56;;;;;;;9.13;5.90;;;22.30;99.90;;;;;;5029677;28;20228;-53
2022/09/11 09:13:03;;;;;;;8.23;5.28;;;21.30;99.90;;;;;;5026843;28;20174;-53
2022/09/11 09:15:49;;;;;;;9.20;5.63;;;21.90;99.90;;;;;;5038557;28;20235;-53
2022/09/11 09:18:37;;;;;;;8.05;4.95;;;21.40;99.90;;;;;;5032114;28;20174;-53
2022/09/11 09:21:20;;;;;;;10.80;5.40;;;20.10;99.90;;;;;;5030603;28;20268;-52
2022/09/11 09:23:52;;;;;;;8.23;5.07;;;20.10;99.90;;;;;;5032626;28;20228;-53
2022/09/11 09:26:19;;;;;;;13.07;5.88;;;19.80;99.90;;;;;;5034104;28;20737;-52
2022/09/11 09:28:47;;;;;;;11.10;4.97;;;20.00;99.90;;;;;;5034494;28;20716;-52
2022/09/11 09:31:21;;;;;;;13.05;5.80;;;19.80;99.90;;;;;;5032191;28;20364;-52
2022/09/11 09:33:56;;;;;;;8.40;4.88;;;20.10;99.90;;;;;;5032123;28;20174;-53
2022/09/11 09:36:56;;;;;;;9.60;4.95;;;20.10;99.90;;;;;;5032249;28;20201;-50
2022/09/11 09:39:23;;;;;;;9.48;4.70;;;20.60;99.90;;;;;;5018036;28;20206;-51
2022/09/11 09:42:07;;;;;;;6.65;3.78;;;20.80;99.90;;;;;;5031445;28;20236;-51
2022/09/11 09:44:41;;;;;;;9.75;3.80;;;20.80;99.90;;;;;;5032052;28;20171;-52
2022/09/11 09:47:11;;;;;;;6.35;3.88;;;20.90;99.90;;;;;;5032175;28;20670;-52
2022/09/11 09:49:38;;;;;;;9.13;4.40;;;21.80;99.90;;;;;;5031714;28;20178;-51
2022/09/11 09:52:18;;;;;;;12.30;3.70;;;23.50;99.90;;;;;;5031022;28;20185;-52
2022/09/11 09:55:02;;;;;;;5.80;3.35;;;24.30;99.90;;;;;;5032109;28;20279;-53
2022/09/11 09:57:33;;;;;;;4.70;3.20;;;24.70;99.90;;;;;;5031670;28;20718;-52
2022/09/11 10:00:08;;;;;;;4.85;2.38;;;25.70;99.90;;;;;;5031828;28;20279;-53
2022/09/11 10:02:47;;;;;;;6.68;3.30;;;25.40;99.90;;;;;;5031212;28;20561;-52
2022/09/11 10:05:29;;;;;;;5.40;3.30;;;24.70;99.90;;;;;;5020782;28;20725;-52
2022/09/11 10:08:05;;;;;;;5.38;3.10;;;25.00;99.90;;;;;;5011753;28;20676;-52
2022/09/11 10:10:35;;;;;;;4.38;2.65;;;24.80;99.90;;;;;;5011961;28;20174;-52
2022/09/11 10:13:21;;;;;;;6.00;2.80;;;24.10;99.90;;;;;;5011525;28;20175;-52
2022/09/11 10:15:52;;;;;;;3.67;2.55;;;23.00;99.90;;;;;;5009914;28;20219;-52
2022/09/11 10:18:45;;;;;;;4.88;2.30;;;23.40;99.90;;;;;;5009875;28;20261;-52
2022/09/11 10:21:11;;;;;;;4.78;2.30;;;25.40;99.90;;;;;;5009599;28;20217;-52
2022/09/11 10:23:49;;;;;;;3.75;1.90;;;25.20;99.90;;;;;;5009740;28;20171;-52
2022/09/11 10:26:20;;;;;;;3.47;2.20;;;26.40;99.90;;;;;;5009965;28;20178;-52
2022/09/11 10:28:47;;;;;;;5.22;2.30;;;27.10;99.90;;;;;;5010456;28;20669;-53
2022/09/11 10:31:17;;;;;;;5.85;1.70;;;26.60;99.90;;;;;;5011685;28;20225;-53
2022/09/11 10:33:59;;;;;;;3.03;1.52;;;25.30;99.90;;;;;;5011653;28;20495;-53
2022/09/11 10:36:27;;;;;;;4.22;1.65;;;25.20;99.90;;;;;;5011647;28;20178;-52
2022/09/11 10:38:58;;;;;;;3.20;1.35;;;24.30;99.90;;;;;;5011534;28;20645;-52
2022/09/11 10:41:26;;;;;;;2.53;1.40;;;23.90;99.90;;;;;;5011339;28;20218;-52
2022/09/11 10:44:00;;;;;;;2.70;1.50;;;23.40;99.90;;;;;;5011441;28;20178;-52
2022/09/11 10:46:32;;;;;;;5.13;1.40;;;23.00;99.90;;;;;;5011445;28;20257;-52
2022/09/11 10:49:22;;;;;;;2.85;1.42;;;22.90;99.90;;;;;;5011283;28;20169;-52
2022/09/11 10:51:58;;;;;;;7.97;2.08;;;23.20;99.90;;;;;;5011209;28;20213;-53
2022/09/11 10:54:37;;;;;;;6.97;1.13;;;23.00;99.90;;;;;;5011238;28;20196;-52
2022/09/11 10:57:32;;;;;;;4.07;1.25;;;22.50;99.90;;;;;;5011340;28;20166;-52
2022/09/11 11:00:16;;;;;;;3.05;1.35;;;22.80;99.90;;;;;;5011075;28;20202;-52
2022/09/11 11:03:11;;;;;;;3.35;1.40;;;22.70;99.90;;;;;;5011269;28;20185;-52
2022/09/11 11:05:58;;;;;;;5.32;1.45;;;22.20;99.90;;;;;;5011331;28;20182;-52
2022/09/11 11:08:27;;;;;;;3.80;1.50;;;22.30;99.90;;;;;;5011129;28;20171;-52
2022/09/11 11:11:22;;;;;;;3.55;1.38;;;22.10;99.90;;;;;;5011120;28;20579;-52
2022/09/11 11:13:56;;;;;;;5.00;1.75;;;22.90;99.90;;;;;;5011223;28;20171;-52
2022/09/11 11:16:38;;;;;;;4.28;1.40;;;23.10;99.90;;;;;;5010246;28;20622;-51
2022/09/11 11:19:22;;;;;;;3.97;1.35;;;23.60;99.90;;;;;;5011802;28;20265;-52
2022/09/11 11:22:26;;;;;;;3.17;1.55;;;24.30;99.90;;;;;;5028748;28;20186;-52
2022/09/11 11:24:54;;;;;;;2.75;1.38;;;25.60;99.90;;;;;;5028933;28;20561;-52
2022/09/11 11:27:32;;;;;;;2.72;1.30;;;26.50;99.90;;;;;;5029174;28;20692;-52
2022/09/11 11:30:27;;;;;;;4.65;1.33;;;26.70;99.90;;;;;;5030397;28;20533;-52
2022/09/11 11:33:16;;;;;;;4.90;1.58;;;26.90;99.90;;;;;;5014707;28;20186;-52
2022/09/11 11:36:03;;;;;;;2.88;1.52;;;25.30;99.90;;;;;;5030268;28;20178;-52
2022/09/11 11:38:47;;;;;;;5.30;1.80;;;25.10;99.90;;;;;;5030744;28;20190;-52
2022/09/11 11:41:29;;;;;;;3.83;1.40;;;24.30;99.90;;;;;;5030329;28;20406;-52
2022/09/11 11:43:57;;;;;;;3.78;1.60;;;24.50;99.90;;;;;;5030552;28;20176;-53
2022/09/11 11:46:47;;;;;;;4.05;1.80;;;25.20;99.90;;;;;;5030582;28;20178;-53
2022/09/11 11:49:50;;;;;;;6.80;1.70;;;26.60;99.90;;;;;;5030147;28;20660;-53
2022/09/11 11:52:29;;;;;;;2.47;1.38;;;28.20;99.90;;;;;;5028840;28;20668;-53
2022/09/11 11:55:15;;;;;;;5.50;1.15;;;28.00;99.90;;;;;;5030219;28;20178;-53
2022/09/11 11:57:47;;;;;;;5.85;1.40;;;28.90;99.90;;;;;;5030534;28;20185;-53
2022/09/11 12:00:16;;;;;;;2.97;1.20;;;30.60;99.90;;;;;;5030325;28;20212;-53
2022/09/11 12:03:22;;;;;;;2.05;1.00;;;29.30;99.90;;;;;;5030353;28;20174;-53
2022/09/11 12:05:48;;;;;;;2.47;1.20;;;26.00;99.90;;;;;;5030182;28;20181;-53
2022/09/11 12:08:15;;;;;;;6.53;1.50;;;26.60;99.90;;;;;;5030257;28;20228;-53
2022/09/11 12:10:55;;;;;;;3.42;1.17;;;26.00;99.90;;;;;;5030169;28;20174;-53
2022/09/11 12:13:30;;;;;;;3.70;1.10;;;27.10;99.90;;;;;;5030034;28;20184;-53
2022/09/11 12:16:19;;;;;;;3.35;0.95;;;28.60;99.90;;;;;;5030031;28;20181;-53
2022/09/11 12:19:24;;;;;;;3.10;1.02;;;28.00;99.90;;;;;;5029995;28;20205;-53
2022/09/11 12:21:52;;;;;;;4.28;1.00;;;26.40;99.90;;;;;;5030123;28;20212;-53
2022/09/11 12:24:43;;;;;;;3.55;1.15;;;26.40;99.90;;;;;;5029921;28;20166;-53
2022/09/11 12:27:33;;;;;;;4.32;0.93;;;26.90;99.90;;;;;;5029891;28;20224;-53
2022/09/11 12:30:08;;;;;;;1.88;0.70;;;26.90;99.90;;;;;;5033546;28;20201;-53
2022/09/11 12:32:41;;;;;;;2.28;0.98;;;27.00;99.90;;;;;;5033483;28;20220;-53
2022/09/11 12:35:28;;;;;;;2.40;0.90;;;27.10;99.90;;;;;;5033602;28;20209;-53
2022/09/11 12:38:02;;;;;;;2.97;0.82;;;27.20;99.90;;;;;;5031873;28;20205;-53
2022/09/11 12:40:52;;;;;;;2.17;0.90;;;26.60;99.90;;;;;;5032232;28;20295;-52
2022/09/11 12:43:35;;;;;;;1.90;0.70;;;26.20;99.90;;;;;;5032820;28;20226;-52
2022/09/11 12:46:04;;;;;;;5.38;1.10;;;26.40;99.90;;;;;;5032782;28;20182;-52
2022/09/11 12:48:45;;;;;;;1.92;0.80;;;26.10;99.90;;;;;;5032274;28;20216;-52
2022/09/11 12:51:24;;;;;;;2.90;0.90;;;26.70;99.90;;;;;;5032789;28;20220;-52
2022/09/11 12:53:52;;;;;;;1.65;0.73;;;26.90;99.90;;;;;;5033201;28;20247;-52
2022/09/11 12:56:24;;;;;;;2.72;0.80;;;27.10;99.90;;;;;;5022539;28;20181;-53
2022/09/11 12:59:04;;;;;;;1.48;0.68;;;28.40;99.90;;;;;;5021071;28;20186;-53
2022/09/11 13:01:33;;;;;;;4.38;0.85;;;28.90;99.90;;;;;;5013178;28;20182;-53
2022/09/11 13:04:13;;;;;;;2.55;0.80;;;28.30;99.90;;;;;;5013140;28;20619;-52
2022/09/11 13:06:43;;;;;;;1.48;0.63;;;27.30;99.90;;;;;;5013241;28;20507;-52
2022/09/11 13:09:20;;;;;;;2.35;0.80;;;27.40;99.90;;;;;;5015039;28;20167;-52
2022/09/11 13:11:52;;;;;;;2.78;0.90;;;27.80;99.90;;;;;;5032747;28;20256;-53